Data for 10/24/2017

Time Sea-Level Adjusted Pressure Absolute Pressure Temperature Relative Humidity Dew Point   
(mb) (inHg) (mb) (inHg) (C) (F) (%) (C) (F)
00:05 1037 30.62 866 25.57 2.7 36.8 54 -5.7 21.8
00:10 1037 30.62 866 25.57 3 37.4 52 -5.9 21.5
00:15 1037 30.62 866 25.57 3 37.3 53 -5.8 21.6
00:20 1037 30.62 866 25.57 2.9 37.2 54 -5.5 22.2
00:25 1037 30.62 866 25.57 3 37.3 53 -5.6 21.9
00:30 1037 30.62 866 25.57 2.8 37.1 54 -5.5 22.1
00:35 1036 30.59 866 25.57 2.9 37.2 54 -5.6 21.9
00:40 1036 30.59 866 25.57 2.9 37.2 55 -5.4 22.3
00:45 1036 30.59 866 25.57 3 37.4 53 -5.8 21.6
00:50 1037 30.62 866 25.57 2.8 37 53 -5.8 21.6
00:55 1037 30.62 866 25.57 2.9 37.2 52 -5.9 21.4
01:00 1037 30.62 866 25.57 3.1 37.7 52 -5.7 21.8
01:05 1036 30.59 866 25.57 3.1 37.6 52 -5.8 21.6
01:10 1036 30.59 866 25.57 3.3 38 52 -5.7 21.7
01:15 1036 30.59 866 25.57 3 37.4 54 -5.3 22.4
01:20 1036 30.59 866 25.57 2.6 36.8 53 -6 21.1
01:25 1036 30.59 866 25.57 2.8 37.1 53 -5.7 21.7
01:30 1036 30.59 866 25.57 2.6 36.6 55 -5.6 21.9
01:35 1036 30.59 866 25.57 2.5 36.6 55 -5.6 21.9
01:40 1037 30.62 866 25.57 2.4 36.3 54 -6 21.2
01:45 1036 30.59 866 25.57 2.5 36.5 53 -6 21.1
01:50 1036 30.59 866 25.57 2.8 37.1 51 -6.3 20.7
01:55 1037 30.62 866 25.57 3 37.4 51 -6.1 21
02:00 1037 30.62 866 25.57 2.9 37.1 54 -5.6 21.9
02:05 1036 30.59 866 25.57 2.3 36.2 55 -5.8 21.5
02:10 1036 30.59 866 25.57 1.9 35.3 57 -5.9 21.5
02:15 1036 30.59 865 25.54 1.7 35 57 -5.9 21.4
02:20 1036 30.59 865 25.54 1.8 35.3 57 -5.9 21.5
02:25 1036 30.59 865 25.54 1.8 35.3 57 -5.7 21.7
02:30 1036 30.59 865 25.54 1.8 35.3 56 -6 21.2
02:35 1036 30.59 865 25.54 1.9 35.4 56 -6 21.1
02:40 1036 30.59 865 25.54 1.9 35.4 55 -6.2 20.8
02:45 1036 30.59 865 25.54 2.1 35.7 54 -6.2 20.8
02:50 1036 30.59 865 25.54 2.2 36 54 -6.1 21
02:55 1036 30.59 865 25.54 2.2 36 54 -6.2 20.9
03:00 1036 30.59 865 25.54 2.4 36.2 54 -6 21.2
03:05 1036 30.59 865 25.54 2.4 36.4 54 -6.1 21.1
03:10 1036 30.59 865 25.54 2.4 36.3 55 -5.8 21.6
03:15 1036 30.59 865 25.54 2.4 36.3 54 -5.9 21.4
03:20 1036 30.59 865 25.54 2.4 36.4 54 -5.8 21.5
03:25 1036 30.59 865 25.54 2.5 36.4 53 -6.1 21.1
03:30 1036 30.59 865 25.54 2.3 36.2 54 -6 21.2
03:35 1036 30.59 865 25.54 2.3 36.2 53 -6.2 20.8
03:40 1036 30.59 865 25.54 2.3 36.1 54 -6.2 20.8
03:45 1036 30.59 865 25.54 2.2 36 53 -6.4 20.5
03:50 1036 30.59 865 25.54 2.3 36.1 54 -6.1 21.1
03:55 1036 30.59 865 25.54 2.2 35.9 55 -5.8 21.5
04:00 1035 30.56 865 25.54 1.8 35.3 57 -5.9 21.4
04:05 1035 30.56 865 25.54 2.2 35.9 54 -6.2 20.9
04:10 1035 30.56 865 25.54 2.4 36.3 54 -6.1 21.1
04:15 1035 30.56 865 25.54 2.2 36 54 -6.1 21
04:20 1035 30.56 865 25.54 2 35.5 56 -5.9 21.3
04:25 1036 30.59 865 25.54 1.7 35 57 -6 21.2
04:30 1036 30.59 865 25.54 1.4 34.6 59 -5.7 21.8
04:35 1036 30.59 865 25.54 1.4 34.5 57 -6.1 21
04:40 1036 30.59 865 25.54 1.5 34.7 58 -5.9 21.5
04:45 1036 30.59 865 25.54 1.7 35 56 -6.3 20.7
04:50 1036 30.59 865 25.54 1.9 35.5 55 -6.1 21
04:55 1036 30.59 865 25.54 1.8 35.3 56 -6.1 21
05:00 1036 30.59 865 25.54 1.7 35 57 -6.1 21.1
05:05 1036 30.59 865 25.54 1.5 34.7 58 -5.9 21.4
05:10 1036 30.59 865 25.54 1.1 34.1 60 -5.8 21.6
05:15 1036 30.59 865 25.54 0.9 33.6 60 -6 21.3
05:20 1036 30.59 865 25.54 0.7 33.2 61 -5.9 21.3
05:25 1036 30.59 865 25.54 0.7 33.2 61 -5.9 21.4
05:30 1036 30.59 865 25.54 0.6 33.2 62 -5.8 21.5
05:35 1036 30.59 865 25.54 0.7 33.2 61 -6 21.3
05:40 1036 30.59 865 25.54 0.8 33.5 59 -6.2 20.9
05:45 1036 30.59 865 25.54 1 33.8 60 -5.9 21.4
05:50 1036 30.59 865 25.54 0.7 33.3 62 -5.8 21.5
05:55 1036 30.59 865 25.54 0.5 33 61 -6 21.1
06:00 1036 30.59 865 25.54 0.6 33 61 -6 21.2
06:05 1036 30.59 865 25.54 0.4 32.8 62 -6 21.1
06:10 1036 30.59 865 25.54 0.3 32.6 63 -6 21.2
06:15 1036 30.59 865 25.54 0.3 32.6 62 -6.2 20.9
06:20 1036 30.59 865 25.54 0.5 33 62 -5.9 21.4
06:25 1036 30.59 865 25.54 0.3 32.6 62 -6.1 21.1
06:30 1036 30.59 865 25.54 0.2 32.4 63 -6 21.3
06:35 1036 30.59 865 25.54 -0 32 64 -6.1 21
06:40 1036 30.59 865 25.54 0.2 32.4 61 -6.4 20.5
06:45 1036 30.59 865 25.54 0.5 32.9 60 -6.4 20.5
06:50 1036 30.59 865 25.54 0.5 33 59 -6.5 20.3
06:55 1036 30.59 865 25.54 0.6 33.1 59 -6.6 20.1
07:00 1036 30.59 865 25.54 0.8 33.4 59 -6.4 20.4
07:05 1036 30.59 865 25.54 0.8 33.5 58 -6.5 20.3
07:10 1036 30.59 865 25.54 0.8 33.4 60 -6.1 21.1
07:15 1036 30.59 865 25.54 0.1 32.2 64 -6 21.2
07:20 1036 30.59 865 25.54 0.2 32.4 61 -6.4 20.5
07:25 1036 30.59 865 25.54 0.9 33.6 59 -6.3 20.6
07:30 1036 30.59 866 25.57 1.5 34.6 57 -6.2 20.8
07:35 1036 30.59 865 25.54 1.9 35.5 55 -6.2 20.8
07:40 1036 30.59 866 25.57 2.3 36.1 54 -6.1 21.1
07:45 1036 30.59 866 25.57 2.1 35.8 55 -6.1 21
07:50 1036 30.59 866 25.57 2.7 36.8 52 -6.1 21.1
07:55 1036 30.59 866 25.57 3.2 37.7 51 -6.1 21.1
08:00 1037 30.62 866 25.57 3.5 38.2 51 -5.6 21.8
08:05 1037 30.62 866 25.57 3.7 38.7 50 -5.9 21.4
08:10 1037 30.62 866 25.57 3.6 38.5 50 -5.8 21.6
08:15 1037 30.62 866 25.57 4.1 39.3 49 -5.7 21.7
08:20 1037 30.62 866 25.57 4.2 39.6 48 -5.7 21.7
08:25 1036 30.59 866 25.57 4.7 40.5 49 -5.2 22.6
08:30 1036 30.59 865 25.54 4.3 39.8 51 -4.9 23.1
08:35 1036 30.59 865 25.54 4.4 40 50 -5 23
08:40 1036 30.59 865 25.54 4.5 40.2 50 -5 23
08:45 1036 30.59 865 25.54 5 41 50 -4.6 23.7
08:50 1036 30.59 865 25.54 5.5 41.9 49 -4.4 24.1
08:55 1036 30.59 865 25.54 6.2 43.2 48 -4 24.9
09:00 1036 30.59 865 25.54 7 44.5 45 -4.1 24.6
09:05 1036 30.59 865 25.54 7.9 46.3 42 -4.2 24.5
09:10 1036 30.59 865 25.54 8.6 47.4 41 -4 24.8
09:15 1036 30.59 865 25.54 8.8 47.8 41 -3.8 25.1
09:20 1036 30.59 865 25.54 9.1 48.4 39 -4.1 24.6
09:25 1036 30.59 865 25.54 8.7 47.7 41 -3.9 24.9
09:30 1036 30.59 865 25.54 8.8 47.9 38 -4.8 23.3
09:35 1036 30.59 865 25.54 8.6 47.5 39 -4.6 23.7
09:40 1036 30.59 865 25.54 9.2 48.5 38 -4.5 24
09:45 1036 30.59 865 25.54 9 48.3 39 -4.2 24.5
09:50 1036 30.59 865 25.54 9.2 48.6 38 -4.3 24.2
09:55 1036 30.59 865 25.54 9.4 49 38 -4 24.7
10:00 1036 30.59 865 25.54 9.4 48.9 38 -4.3 24.3
10:05 1035 30.56 865 25.54 9.2 48.5 38 -4.3 24.3
10:10 1035 30.56 865 25.54 9.4 48.9 36 -4.8 23.4
10:15 1035 30.56 865 25.54 10.4 50.7 35 -4.5 23.9
10:20 1035 30.56 865 25.54 10.4 50.7 34 -4.7 23.6
10:25 1035 30.56 865 25.54 10.5 50.9 33 -5.1 22.9
10:30 1035 30.56 864 25.51 11 51.8 32 -4.9 23.2
10:35 1035 30.56 864 25.51 11.3 52.3 32 -4.7 23.5
10:40 1035 30.56 864 25.51 11.6 52.8 32 -4.7 23.5
10:45 1035 30.56 864 25.51 11.6 52.9 32 -4.4 24.2
10:50 1035 30.56 865 25.54 11.9 53.5 31 -4.7 23.6
10:55 1035 30.56 864 25.51 12 53.6 31 -4.4 24
11:00 1035 30.56 864 25.51 12.1 53.7 32 -4.3 24.3
11:05 1035 30.56 864 25.51 12 53.6 31 -4.4 24.1
11:10 1035 30.56 864 25.51 12.3 54.1 31 -4.4 24.1
11:15 1035 30.56 864 25.51 12.2 54 31 -4.2 24.4
11:20 1035 30.56 864 25.51 12.5 54.5 31 -4.1 24.7
11:25 1035 30.56 864 25.51 13 55.4 30 -4 24.8
11:30 1035 30.56 864 25.51 13.6 56.4 28 -4.3 24.2
11:35 1035 30.56 864 25.51 13.3 55.9 30 -3.9 25.1
11:40 1035 30.56 864 25.51 12.7 54.9 31 -4.1 24.6
11:45 1035 30.56 864 25.51 13.4 56.1 28 -4.7 23.5
11:50 1034 30.53 864 25.51 13.9 57 27 -4.9 23.1
11:55 1034 30.53 864 25.51 14.8 58.6 25 -4.7 23.5
12:00 1034 30.53 864 25.51 14.8 58.6 26 -4.5 24
12:05 1034 30.53 864 25.51 15.1 59.1 24 -5.1 22.8
12:10 1034 30.53 864 25.51 15.4 59.6 24 -5.1 22.8
12:15 1034 30.53 863 25.48 15.9 60.6 24 -4.8 23.3
12:20 1034 30.53 863 25.48 15.3 59.5 25 -4.7 23.5
12:25 1034 30.53 863 25.48 15.3 59.5 24 -5.1 22.8
12:30 1034 30.53 863 25.48 15.6 60 23 -5.3 22.5
12:35 1034 30.53 863 25.48 16.1 60.9 23 -4.9 23.1
12:40 1034 30.53 863 25.48 16.1 60.9 23 -5.1 22.8
12:45 1034 30.53 863 25.48 15.9 60.7 23 -5.3 22.5
12:50 1034 30.53 863 25.48 15.4 59.7 25 -4.6 23.7
12:55 1034 30.53 863 25.48 14.7 58.5 24 -5.4 22.2
13:00 1033 30.5 863 25.48 15.6 60.1 23 -5.3 22.5
13:05 1033 30.5 863 25.48 15.7 60.3 24 -5 23.1
13:10 1033 30.5 862 25.45 16.4 61.4 22 -5.6 21.9
13:15 1033 30.5 862 25.45 16.7 62.1 23 -4.5 23.8
13:20 1033 30.5 862 25.45 16.1 61 23 -5.1 22.8
13:25 1033 30.5 862 25.45 16.1 60.9 22 -5.4 22.4
13:30 1033 30.5 862 25.45 16.8 62.2 21 -5.5 22
13:35 1033 30.5 862 25.45 15.7 60.3 23 -5.2 22.6
13:40 1033 30.5 862 25.45 15.7 60.2 22 -5.8 21.5
13:45 1033 30.5 862 25.45 15.8 60.4 23 -5.1 22.9
13:50 1033 30.5 862 25.45 15.5 60 22 -5.8 21.6
13:55 1033 30.5 862 25.45 16.4 61.5 21 -5.7 21.7
14:00 1033 30.5 862 25.45 15.8 60.4 22 -5.6 22
14:05 1032 30.47 862 25.45 16.4 61.6 21 -6 21.1
14:10 1032 30.47 862 25.45 17.2 62.9 20 -5.6 21.9
14:15 1032 30.47 862 25.45 17.2 62.9 20 -5.6 21.9
14:20 1032 30.47 861 25.43 17.2 62.9 19 -6.2 20.8
14:25 1032 30.47 861 25.43 17.2 62.9 20 -6 21.2
14:30 1032 30.47 861 25.43 17.2 63 20 -5.9 21.4
14:35 1032 30.47 861 25.43 17.7 63.9 19 -5.8 21.5
14:40 1032 30.47 861 25.43 16.9 62.4 21 -5.5 22.1
14:45 1032 30.47 861 25.43 17.3 63.1 19 -6.2 20.9
14:50 1032 30.47 861 25.43 17.2 63 21 -5.4 22.3
14:55 1032 30.47 861 25.43 16.7 62.1 20 -6.2 20.8
15:00 1032 30.47 861 25.43 17 62.5 21 -5.7 21.8
15:05 1032 30.47 861 25.43 16.3 61.4 21 -6 21.2
15:10 1032 30.47 861 25.43 16.6 62 20 -6.2 20.9
15:15 1032 30.47 861 25.43 16.8 62.3 20 -6.3 20.6
15:20 1032 30.47 861 25.43 17.8 64 19 -6 21.2
15:25 1032 30.47 861 25.43 17.9 64.2 19 -6.2 20.9
15:30 1032 30.47 861 25.43 17 62.7 20 -6.3 20.7
15:35 1031 30.45 861 25.43 16.9 62.4 21 -5.7 21.8
15:40 1031 30.45 861 25.43 16.1 61.1 22 -5.6 21.9
15:45 1031 30.45 861 25.43 16.9 62.3 20 -6.2 20.9
15:50 1031 30.45 861 25.43 16.9 62.4 20 -6 21.2
15:55 1031 30.45 860 25.4 16.4 61.6 21 -5.9 21.5
16:00 1031 30.45 860 25.4 16.1 61 22 -5.5 22.1
16:05 1031 30.45 860 25.4 16.2 61.2 21 -6.3 20.7
16:10 1031 30.45 860 25.4 16.3 61.4 21 -5.9 21.4
16:15 1031 30.45 860 25.4 15.9 60.5 21 -6.2 20.9
16:20 1031 30.45 860 25.4 15.7 60.2 21 -6.3 20.6
16:25 1031 30.45 860 25.4 15.7 60.2 21 -6.5 20.3
16:30 1031 30.45 860 25.4 15.6 60.1 21 -6.7 19.9
16:35 1031 30.45 860 25.4 15.8 60.5 21 -6.5 20.4
16:40 1031 30.45 860 25.4 15.9 60.6 21 -6.2 20.8
16:45 1031 30.45 860 25.4 15.9 60.6 21 -6.5 20.2
16:50 1031 30.45 860 25.4 15.8 60.5 21 -6.5 20.2
16:55 1031 30.45 860 25.4 15.8 60.4 21 -6.5 20.4
17:00 1030 30.42 860 25.4 15.8 60.4 21 -6.6 20
17:05 1030 30.42 860 25.4 15.7 60.3 21 -6.4 20.4
17:10 1030 30.42 860 25.4 15.5 59.9 21 -6.6 20.2
17:15 1030 30.42 859 25.37 15.4 59.6 21 -6.7 20
17:20 1030 30.42 859 25.37 15.1 59.2 21 -6.7 19.9
17:25 1030 30.42 860 25.4 14.9 58.8 23 -6.1 21
17:30 1030 30.42 860 25.4 14.6 58.3 25 -4.9 23.1
17:35 1030 30.42 860 25.4 14 57.2 29 -3.6 25.5
17:40 1030 30.42 859 25.37 12.7 54.9 32 -3.4 26
17:45 1030 30.42 859 25.37 11.9 53.5 33 -3.7 25.3
17:50 1030 30.42 859 25.37 11.6 52.8 33 -4 24.8
17:55 1030 30.42 859 25.37 11 51.8 35 -4 24.9
18:00 1030 30.42 859 25.37 10.5 50.8 35 -4.2 24.4
18:05 1030 30.42 859 25.37 10.2 50.4 34 -5 23
18:10 1030 30.42 859 25.37 10.2 50.3 34 -5 23.1
18:15 1030 30.42 859 25.37 10 50.1 33 -5.4 22.3
18:20 1030 30.42 859 25.37 9.8 49.7 34 -5.4 22.3
18:25 1030 30.42 859 25.37 9.7 49.5 33 -5.8 21.6
18:30 1030 30.42 859 25.37 9.8 49.6 33 -5.5 22
18:35 1030 30.42 859 25.37 9.7 49.5 33 -5.9 21.4
18:40 1030 30.42 859 25.37 9.7 49.4 33 -6 21.3
18:45 1030 30.42 859 25.37 9.6 49.2 33 -6 21.2
18:50 1030 30.42 859 25.37 9.2 48.6 34 -5.9 21.4
18:55 1030 30.42 859 25.37 9.1 48.4 33 -6.1 21
19:00 1030 30.42 859 25.37 9 48.2 34 -5.9 21.3
19:05 1030 30.42 859 25.37 8.7 47.7 35 -5.9 21.3
19:10 1030 30.42 859 25.37 8.4 47 37 -5.5 22
19:15 1030 30.42 859 25.37 8 46.3 36 -6.1 21
19:20 1030 30.42 859 25.37 8.1 46.6 35 -6.3 20.6
19:25 1030 30.42 859 25.37 8.2 46.7 35 -6.3 20.7
19:30 1030 30.42 859 25.37 8.1 46.5 36 -6.3 20.7
19:35 1030 30.42 859 25.37 8.1 46.6 35 -6.4 20.5
19:40 1030 30.42 859 25.37 8.1 46.5 36 -6.1 21
19:45 1030 30.42 859 25.37 8 46.3 35 -6.5 20.4
19:50 1029 30.39 859 25.37 8.4 47.1 34 -6.7 20
19:55 1029 30.39 859 25.37 8.4 47.2 34 -6.6 20.1
20:00 1029 30.39 858 25.34 8.5 47.3 34 -6.5 20.2
20:05 1029 30.39 858 25.34 8.2 46.7 34 -6.7 20
20:10 1029 30.39 858 25.34 8.2 46.8 34 -6.6 20
20:15 1029 30.39 858 25.34 8.1 46.6 35 -6.5 20.3
20:20 1029 30.39 858 25.34 8 46.5 34 -6.9 19.6
20:25 1029 30.39 858 25.34 8.1 46.5 35 -6.5 20.3
20:30 1029 30.39 858 25.34 8 46.4 34 -7 19.4
20:35 1029 30.39 858 25.34 8.1 46.5 34 -6.7 19.9
20:40 1029 30.39 858 25.34 8.2 46.8 32 -7.4 18.6
20:45 1029 30.39 858 25.34 8.7 47.6 31 -7.6 18.3
20:50 1029 30.39 858 25.34 8.8 47.9 29 -8.1 17.5
20:55 1029 30.39 858 25.34 9.4 48.9 30 -7.2 19
21:00 1028 30.36 858 25.34 9.1 48.3 30 -7.7 18.2
21:05 1028 30.36 858 25.34 8.8 47.9 30 -7.8 17.9
21:10 1028 30.36 858 25.34 8.9 48 30 -7.7 18.1
21:15 1028 30.36 858 25.34 8.7 47.6 30 -7.9 17.7
21:20 1028 30.36 857 25.31 8.8 47.8 30 -7.7 18.1
21:25 1028 30.36 857 25.31 8.6 47.4 32 -7.3 18.8
21:30 1028 30.36 857 25.31 8.1 46.5 31 -8 17.6
21:35 1028 30.36 857 25.31 8.6 47.4 30 -8.1 17.5
21:40 1028 30.36 857 25.31 8.8 47.8 29 -8.3 17.1
21:45 1028 30.36 857 25.31 8.9 48 29 -8.2 17.2
21:50 1028 30.36 857 25.31 8.9 47.9 28 -8.7 16.3
21:55 1028 30.36 857 25.31 9.4 48.9 27 -8.7 16.3
22:00 1028 30.36 857 25.31 9.2 48.6 29 -8.1 17.5
22:05 1028 30.36 857 25.31 8.6 47.4 30 -8.2 17.3
22:10 1028 30.36 857 25.31 7.9 46.2 31 -8.2 17.3
22:15 1028 30.36 857 25.31 7.6 45.7 31 -8.3 17.1
22:20 1028 30.36 857 25.31 7.4 45.3 32 -8.1 17.5
22:25 1028 30.36 857 25.31 7 44.5 34 -7.8 17.9
22:30 1028 30.36 857 25.31 6.6 43.8 35 -7.9 17.9
22:35 1028 30.36 857 25.31 6.4 43.5 35 -8 17.5
22:40 1028 30.36 857 25.31 6.8 44.2 36 -7.4 18.7
22:45 1028 30.36 857 25.31 7.1 44.8 34 -7.6 18.2
22:50 1028 30.36 857 25.31 7 44.5 34 -7.7 18.1
22:55 1028 30.36 857 25.31 6.3 43.3 37 -7.5 18.5
23:00 1028 30.36 857 25.31 6.3 43.3 34 -8.3 17
23:05 1028 30.36 857 25.31 6.6 43.8 36 -7.4 18.7
23:10 1028 30.36 857 25.31 6 42.7 38 -7.1 19.1
23:15 1028 30.36 857 25.31 5.4 41.6 41 -7 19.5
23:20 1028 30.36 857 25.31 4.9 40.9 41 -7.2 19
23:25 1028 30.36 857 25.31 4.7 40.5 42 -7.3 18.9
23:30 1028 30.36 857 25.31 4.9 40.9 40 -7.6 18.3
23:35 1028 30.36 857 25.31 5.5 41.9 36 -8.4 16.9
23:40 1028 30.36 857 25.31 6 42.8 35 -8.3 17.1
23:45 1028 30.36 857 25.31 5.9 42.7 37 -7.7 18.1
23:50 1027 30.33 857 25.31 5.5 42 37 -8 17.7
23:55 1027 30.33 857 25.31 5.5 41.8 38 -7.8 17.9
24:00 1027 30.33 857 25.31 5.5 41.8 34 -9.2 15.5